sensor_id;sensor_type;location;lat;lon;timestamp;P1;durP1;ratioP1;P2;durP2;ratioP2
5125;SDS011;63008;53.112;8.896;2023-04-25T00:01:56;19.63;;;4.67;;
5125;SDS011;63008;53.112;8.896;2023-04-25T00:03:57;20.57;;;4.47;;
5125;SDS011;63008;53.112;8.896;2023-04-25T00:05:58;16.97;;;4.50;;
5125;SDS011;63008;53.112;8.896;2023-04-25T00:08:03;29.40;;;4.87;;
5125;SDS011;63008;53.112;8.896;2023-04-25T00:10:04;24.47;;;4.27;;
5125;SDS011;63008;53.112;8.896;2023-04-25T00:12:06;25.53;;;5.90;;
5125;SDS011;63008;53.112;8.896;2023-04-25T00:14:07;27.20;;;5.60;;
5125;SDS011;63008;53.112;8.896;2023-04-25T00:16:08;23.27;;;4.00;;
5125;SDS011;63008;53.112;8.896;2023-04-25T00:18:09;27.07;;;6.57;;
5125;SDS011;63008;53.112;8.896;2023-04-25T00:20:12;16.87;;;5.00;;
5125;SDS011;63008;53.112;8.896;2023-04-25T00:22:13;26.23;;;5.43;;
5125;SDS011;63008;53.112;8.896;2023-04-25T00:24:14;21.10;;;4.87;;
5125;SDS011;63008;53.112;8.896;2023-04-25T00:26:15;24.87;;;4.70;;
5125;SDS011;63008;53.112;8.896;2023-04-25T00:28:16;24.27;;;4.60;;
5125;SDS011;63008;53.112;8.896;2023-04-25T00:30:17;23.23;;;5.43;;
5125;SDS011;63008;53.112;8.896;2023-04-25T00:32:18;18.40;;;3.80;;
5125;SDS011;63008;53.112;8.896;2023-04-25T00:34:19;23.53;;;5.60;;
5125;SDS011;63008;53.112;8.896;2023-04-25T00:36:21;32.07;;;6.17;;
5125;SDS011;63008;53.112;8.896;2023-04-25T00:38:22;23.33;;;4.03;;
5125;SDS011;63008;53.112;8.896;2023-04-25T00:40:23;35.10;;;5.77;;
5125;SDS011;63008;53.112;8.896;2023-04-25T00:42:24;15.40;;;4.47;;
5125;SDS011;63008;53.112;8.896;2023-04-25T00:44:26;29.53;;;5.37;;
5125;SDS011;63008;53.112;8.896;2023-04-25T00:46:28;22.03;;;4.10;;
5125;SDS011;63008;53.112;8.896;2023-04-25T00:48:29;24.50;;;4.90;;
5125;SDS011;63008;53.112;8.896;2023-04-25T00:50:30;13.60;;;4.30;;
5125;SDS011;63008;53.112;8.896;2023-04-25T00:52:31;31.33;;;4.20;;
5125;SDS011;63008;53.112;8.896;2023-04-25T00:54:32;31.80;;;5.73;;
5125;SDS011;63008;53.112;8.896;2023-04-25T00:56:33;22.60;;;4.63;;
5125;SDS011;63008;53.112;8.896;2023-04-25T00:58:34;24.30;;;5.13;;
5125;SDS011;63008;53.112;8.896;2023-04-25T01:00:35;28.17;;;5.10;;
5125;SDS011;63008;53.112;8.896;2023-04-25T01:02:37;31.63;;;5.07;;
5125;SDS011;63008;53.112;8.896;2023-04-25T01:04:38;27.73;;;4.90;;
5125;SDS011;63008;53.112;8.896;2023-04-25T01:06:39;27.37;;;5.33;;
5125;SDS011;63008;53.112;8.896;2023-04-25T01:08:40;30.27;;;5.00;;
5125;SDS011;63008;53.112;8.896;2023-04-25T01:10:41;23.83;;;4.50;;
5125;SDS011;63008;53.112;8.896;2023-04-25T01:12:42;27.33;;;5.30;;
5125;SDS011;63008;53.112;8.896;2023-04-25T01:14:43;27.83;;;4.40;;
5125;SDS011;63008;53.112;8.896;2023-04-25T01:16:44;36.13;;;4.20;;
5125;SDS011;63008;53.112;8.896;2023-04-25T01:18:45;24.63;;;4.67;;
5125;SDS011;63008;53.112;8.896;2023-04-25T01:20:48;25.93;;;4.83;;
5125;SDS011;63008;53.112;8.896;2023-04-25T01:22:52;21.73;;;5.60;;
5125;SDS011;63008;53.112;8.896;2023-04-25T01:24:53;32.23;;;5.30;;
5125;SDS011;63008;53.112;8.896;2023-04-25T01:26:54;22.60;;;4.73;;
5125;SDS011;63008;53.112;8.896;2023-04-25T01:28:56;24.63;;;4.60;;
5125;SDS011;63008;53.112;8.896;2023-04-25T01:30:58;24.10;;;5.30;;
5125;SDS011;63008;53.112;8.896;2023-04-25T01:33:02;29.77;;;4.63;;
5125;SDS011;63008;53.112;8.896;2023-04-25T01:35:09;26.43;;;4.00;;
5125;SDS011;63008;53.112;8.896;2023-04-25T01:37:11;27.07;;;4.83;;
5125;SDS011;63008;53.112;8.896;2023-04-25T01:39:12;20.60;;;4.70;;
5125;SDS011;63008;53.112;8.896;2023-04-25T01:41:14;22.23;;;4.40;;
5125;SDS011;63008;53.112;8.896;2023-04-25T01:43:15;23.60;;;5.03;;
5125;SDS011;63008;53.112;8.896;2023-04-25T01:45:17;29.10;;;4.70;;
5125;SDS011;63008;53.112;8.896;2023-04-25T01:47:18;28.50;;;5.00;;
5125;SDS011;63008;53.112;8.896;2023-04-25T01:49:19;21.17;;;4.30;;
5125;SDS011;63008;53.112;8.896;2023-04-25T01:51:20;26.87;;;4.43;;
5125;SDS011;63008;53.112;8.896;2023-04-25T01:53:21;30.20;;;5.77;;
5125;SDS011;63008;53.112;8.896;2023-04-25T01:55:23;27.97;;;5.80;;
5125;SDS011;63008;53.112;8.896;2023-04-25T01:57:24;29.13;;;4.10;;
5125;SDS011;63008;53.112;8.896;2023-04-25T01:59:25;25.47;;;6.10;;
5125;SDS011;63008;53.112;8.896;2023-04-25T02:01:26;33.57;;;4.30;;
5125;SDS011;63008;53.112;8.896;2023-04-25T02:03:27;28.27;;;5.20;;
5125;SDS011;63008;53.112;8.896;2023-04-25T02:05:34;25.33;;;5.27;;
5125;SDS011;63008;53.112;8.896;2023-04-25T02:07:36;29.50;;;4.60;;
5125;SDS011;63008;53.112;8.896;2023-04-25T02:09:37;25.40;;;4.37;;
5125;SDS011;63008;53.112;8.896;2023-04-25T02:11:38;26.40;;;4.37;;
5125;SDS011;63008;53.112;8.896;2023-04-25T02:13:39;33.50;;;5.10;;
5125;SDS011;63008;53.112;8.896;2023-04-25T02:15:40;18.30;;;3.10;;
5125;SDS011;63008;53.112;8.896;2023-04-25T02:17:41;19.87;;;3.97;;
5125;SDS011;63008;53.112;8.896;2023-04-25T02:19:42;30.20;;;4.60;;
5125;SDS011;63008;53.112;8.896;2023-04-25T02:21:43;16.93;;;3.90;;
5125;SDS011;63008;53.112;8.896;2023-04-25T02:23:44;20.93;;;4.57;;
5125;SDS011;63008;53.112;8.896;2023-04-25T02:25:49;18.73;;;4.00;;
5125;SDS011;63008;53.112;8.896;2023-04-25T02:27:50;24.63;;;5.13;;
5125;SDS011;63008;53.112;8.896;2023-04-25T02:29:51;16.70;;;3.90;;
5125;SDS011;63008;53.112;8.896;2023-04-25T02:31:52;15.20;;;4.13;;
5125;SDS011;63008;53.112;8.896;2023-04-25T02:33:53;24.47;;;4.87;;
5125;SDS011;63008;53.112;8.896;2023-04-25T02:35:54;28.47;;;4.83;;
5125;SDS011;63008;53.112;8.896;2023-04-25T02:37:55;22.93;;;4.07;;
5125;SDS011;63008;53.112;8.896;2023-04-25T02:39:56;33.90;;;5.00;;
5125;SDS011;63008;53.112;8.896;2023-04-25T02:41:57;22.33;;;4.13;;
5125;SDS011;63008;53.112;8.896;2023-04-25T02:43:58;23.30;;;4.17;;
5125;SDS011;63008;53.112;8.896;2023-04-25T02:45:59;33.50;;;5.83;;
5125;SDS011;63008;53.112;8.896;2023-04-25T02:48:01;17.43;;;3.63;;
5125;SDS011;63008;53.112;8.896;2023-04-25T02:50:03;15.73;;;3.77;;
5125;SDS011;63008;53.112;8.896;2023-04-25T02:52:04;21.30;;;4.50;;
5125;SDS011;63008;53.112;8.896;2023-04-25T02:54:05;27.40;;;4.50;;
5125;SDS011;63008;53.112;8.896;2023-04-25T02:56:07;20.00;;;4.33;;
5125;SDS011;63008;53.112;8.896;2023-04-25T02:58:08;22.53;;;4.60;;
5125;SDS011;63008;53.112;8.896;2023-04-25T03:00:09;23.73;;;4.40;;
5125;SDS011;63008;53.112;8.896;2023-04-25T03:02:12;17.03;;;4.60;;
5125;SDS011;63008;53.112;8.896;2023-04-25T03:04:13;19.73;;;4.77;;
5125;SDS011;63008;53.112;8.896;2023-04-25T03:06:14;19.33;;;3.60;;
5125;SDS011;63008;53.112;8.896;2023-04-25T03:08:16;25.00;;;4.60;;
5125;SDS011;63008;53.112;8.896;2023-04-25T03:10:18;23.87;;;4.80;;
5125;SDS011;63008;53.112;8.896;2023-04-25T03:12:19;27.37;;;4.77;;
5125;SDS011;63008;53.112;8.896;2023-04-25T03:14:20;16.80;;;4.10;;
5125;SDS011;63008;53.112;8.896;2023-04-25T03:16:21;25.80;;;5.13;;
5125;SDS011;63008;53.112;8.896;2023-04-25T03:18:22;15.77;;;4.00;;
5125;SDS011;63008;53.112;8.896;2023-04-25T03:20:23;25.30;;;5.10;;
5125;SDS011;63008;53.112;8.896;2023-04-25T03:22:24;20.10;;;4.17;;
5125;SDS011;63008;53.112;8.896;2023-04-25T03:24:25;28.07;;;4.00;;
5125;SDS011;63008;53.112;8.896;2023-04-25T03:26:27;21.90;;;4.87;;
5125;SDS011;63008;53.112;8.896;2023-04-25T03:28:28;23.40;;;4.20;;
5125;SDS011;63008;53.112;8.896;2023-04-25T03:30:29;12.87;;;3.70;;
5125;SDS011;63008;53.112;8.896;2023-04-25T03:32:30;29.57;;;5.07;;
5125;SDS011;63008;53.112;8.896;2023-04-25T03:34:31;19.20;;;4.03;;
5125;SDS011;63008;53.112;8.896;2023-04-25T03:36:32;27.40;;;4.63;;
5125;SDS011;63008;53.112;8.896;2023-04-25T03:38:33;25.47;;;5.10;;
5125;SDS011;63008;53.112;8.896;2023-04-25T03:40:34;30.30;;;3.87;;
5125;SDS011;63008;53.112;8.896;2023-04-25T03:42:35;18.87;;;4.20;;
5125;SDS011;63008;53.112;8.896;2023-04-25T03:44:36;19.67;;;4.90;;
5125;SDS011;63008;53.112;8.896;2023-04-25T03:46:37;16.60;;;4.70;;
5125;SDS011;63008;53.112;8.896;2023-04-25T03:48:38;23.07;;;4.20;;
5125;SDS011;63008;53.112;8.896;2023-04-25T03:50:39;18.40;;;4.23;;
5125;SDS011;63008;53.112;8.896;2023-04-25T03:52:40;17.00;;;3.77;;
5125;SDS011;63008;53.112;8.896;2023-04-25T03:54:41;21.00;;;3.90;;
5125;SDS011;63008;53.112;8.896;2023-04-25T03:56:42;27.67;;;4.10;;
5125;SDS011;63008;53.112;8.896;2023-04-25T03:58:43;19.20;;;3.80;;
5125;SDS011;63008;53.112;8.896;2023-04-25T04:00:44;27.57;;;6.00;;
5125;SDS011;63008;53.112;8.896;2023-04-25T04:02:45;20.13;;;3.57;;
5125;SDS011;63008;53.112;8.896;2023-04-25T04:04:46;30.60;;;4.13;;
5125;SDS011;63008;53.112;8.896;2023-04-25T04:06:47;31.17;;;4.93;;
5125;SDS011;63008;53.112;8.896;2023-04-25T04:08:48;27.47;;;4.10;;
5125;SDS011;63008;53.112;8.896;2023-04-25T04:10:49;18.03;;;3.70;;
5125;SDS011;63008;53.112;8.896;2023-04-25T04:12:50;22.93;;;4.30;;
5125;SDS011;63008;53.112;8.896;2023-04-25T04:14:51;15.07;;;4.37;;
5125;SDS011;63008;53.112;8.896;2023-04-25T04:16:52;15.77;;;3.27;;
5125;SDS011;63008;53.112;8.896;2023-04-25T04:18:53;18.30;;;3.90;;
5125;SDS011;63008;53.112;8.896;2023-04-25T04:20:54;31.30;;;3.57;;
5125;SDS011;63008;53.112;8.896;2023-04-25T04:22:55;23.53;;;3.80;;
5125;SDS011;63008;53.112;8.896;2023-04-25T04:24:56;19.90;;;4.27;;
5125;SDS011;63008;53.112;8.896;2023-04-25T04:26:57;18.43;;;3.50;;
5125;SDS011;63008;53.112;8.896;2023-04-25T04:28:59;15.57;;;3.43;;
5125;SDS011;63008;53.112;8.896;2023-04-25T04:31:00;16.20;;;3.53;;
5125;SDS011;63008;53.112;8.896;2023-04-25T04:33:03;31.87;;;4.07;;
5125;SDS011;63008;53.112;8.896;2023-04-25T04:35:04;29.97;;;4.90;;
5125;SDS011;63008;53.112;8.896;2023-04-25T04:37:07;17.23;;;3.70;;
5125;SDS011;63008;53.112;8.896;2023-04-25T04:39:08;18.37;;;3.77;;
5125;SDS011;63008;53.112;8.896;2023-04-25T04:41:10;32.63;;;4.60;;
5125;SDS011;63008;53.112;8.896;2023-04-25T04:43:11;18.57;;;3.30;;
5125;SDS011;63008;53.112;8.896;2023-04-25T04:45:12;17.27;;;3.70;;
5125;SDS011;63008;53.112;8.896;2023-04-25T04:47:13;20.93;;;3.70;;
5125;SDS011;63008;53.112;8.896;2023-04-25T04:49:14;15.23;;;4.90;;
5125;SDS011;63008;53.112;8.896;2023-04-25T04:51:15;20.57;;;3.93;;
5125;SDS011;63008;53.112;8.896;2023-04-25T04:53:16;22.97;;;4.43;;
5125;SDS011;63008;53.112;8.896;2023-04-25T04:55:17;15.57;;;3.37;;
5125;SDS011;63008;53.112;8.896;2023-04-25T04:57:18;18.07;;;3.93;;
5125;SDS011;63008;53.112;8.896;2023-04-25T04:59:19;18.30;;;4.40;;
5125;SDS011;63008;53.112;8.896;2023-04-25T05:01:20;11.63;;;2.93;;
5125;SDS011;63008;53.112;8.896;2023-04-25T05:03:22;12.67;;;3.30;;
5125;SDS011;63008;53.112;8.896;2023-04-25T05:05:23;11.47;;;3.17;;
5125;SDS011;63008;53.112;8.896;2023-04-25T05:07:24;13.07;;;2.23;;
5125;SDS011;63008;53.112;8.896;2023-04-25T05:09:26;15.23;;;3.37;;
5125;SDS011;63008;53.112;8.896;2023-04-25T05:11:27;17.50;;;3.37;;
5125;SDS011;63008;53.112;8.896;2023-04-25T05:13:28;21.50;;;3.00;;
5125;SDS011;63008;53.112;8.896;2023-04-25T05:15:29;15.77;;;3.37;;
5125;SDS011;63008;53.112;8.896;2023-04-25T05:17:30;18.73;;;2.43;;
5125;SDS011;63008;53.112;8.896;2023-04-25T05:19:32;16.07;;;3.30;;
5125;SDS011;63008;53.112;8.896;2023-04-25T05:21:33;16.70;;;2.80;;
5125;SDS011;63008;53.112;8.896;2023-04-25T05:23:35;16.13;;;3.23;;
5125;SDS011;63008;53.112;8.896;2023-04-25T05:25:36;15.27;;;3.80;;
5125;SDS011;63008;53.112;8.896;2023-04-25T05:27:37;20.60;;;4.20;;
5125;SDS011;63008;53.112;8.896;2023-04-25T05:29:38;12.17;;;3.20;;
5125;SDS011;63008;53.112;8.896;2023-04-25T05:31:39;13.60;;;4.10;;
5125;SDS011;63008;53.112;8.896;2023-04-25T05:33:40;22.80;;;3.90;;
5125;SDS011;63008;53.112;8.896;2023-04-25T05:35:41;24.70;;;4.43;;
5125;SDS011;63008;53.112;8.896;2023-04-25T05:37:42;18.30;;;4.00;;
5125;SDS011;63008;53.112;8.896;2023-04-25T05:39:43;19.20;;;4.00;;
5125;SDS011;63008;53.112;8.896;2023-04-25T05:41:44;14.53;;;3.27;;
5125;SDS011;63008;53.112;8.896;2023-04-25T05:43:45;18.00;;;3.53;;
5125;SDS011;63008;53.112;8.896;2023-04-25T05:45:49;15.13;;;3.30;;
5125;SDS011;63008;53.112;8.896;2023-04-25T05:47:50;13.53;;;3.23;;
5125;SDS011;63008;53.112;8.896;2023-04-25T05:49:51;15.80;;;3.70;;
5125;SDS011;63008;53.112;8.896;2023-04-25T05:51:52;13.83;;;3.13;;
5125;SDS011;63008;53.112;8.896;2023-04-25T05:53:53;19.87;;;4.57;;
5125;SDS011;63008;53.112;8.896;2023-04-25T05:55:54;14.63;;;3.10;;
5125;SDS011;63008;53.112;8.896;2023-04-25T05:57:55;17.73;;;3.63;;
5125;SDS011;63008;53.112;8.896;2023-04-25T05:59:56;11.00;;;2.87;;
5125;SDS011;63008;53.112;8.896;2023-04-25T06:01:57;14.03;;;2.90;;
5125;SDS011;63008;53.112;8.896;2023-04-25T06:03:58;16.83;;;3.77;;
5125;SDS011;63008;53.112;8.896;2023-04-25T06:05:59;10.70;;;2.83;;
5125;SDS011;63008;53.112;8.896;2023-04-25T06:08:00;12.87;;;3.63;;
5125;SDS011;63008;53.112;8.896;2023-04-25T06:10:01;18.37;;;4.00;;
5125;SDS011;63008;53.112;8.896;2023-04-25T06:12:04;11.27;;;2.83;;
5125;SDS011;63008;53.112;8.896;2023-04-25T06:14:06;22.47;;;3.63;;
5125;SDS011;63008;53.112;8.896;2023-04-25T06:16:07;23.13;;;2.70;;
5125;SDS011;63008;53.112;8.896;2023-04-25T06:18:08;24.03;;;3.53;;
5125;SDS011;63008;53.112;8.896;2023-04-25T06:20:09;20.33;;;3.50;;
5125;SDS011;63008;53.112;8.896;2023-04-25T06:22:11;22.17;;;3.43;;
5125;SDS011;63008;53.112;8.896;2023-04-25T06:24:12;16.20;;;3.90;;
5125;SDS011;63008;53.112;8.896;2023-04-25T06:26:13;11.40;;;3.73;;
5125;SDS011;63008;53.112;8.896;2023-04-25T06:28:14;16.97;;;2.90;;
5125;SDS011;63008;53.112;8.896;2023-04-25T06:30:15;15.23;;;3.33;;
5125;SDS011;63008;53.112;8.896;2023-04-25T06:32:18;12.77;;;3.00;;
5125;SDS011;63008;53.112;8.896;2023-04-25T06:34:19;10.43;;;2.43;;
5125;SDS011;63008;53.112;8.896;2023-04-25T06:36:21;16.30;;;2.80;;
5125;SDS011;63008;53.112;8.896;2023-04-25T06:38:26;10.33;;;2.37;;
5125;SDS011;63008;53.112;8.896;2023-04-25T06:40:27;10.10;;;2.40;;
5125;SDS011;63008;53.112;8.896;2023-04-25T06:42:28;9.67;;;2.63;;
5125;SDS011;63008;53.112;8.896;2023-04-25T06:44:29;9.57;;;2.47;;
5125;SDS011;63008;53.112;8.896;2023-04-25T06:46:30;17.37;;;2.73;;
5125;SDS011;63008;53.112;8.896;2023-04-25T06:48:31;15.80;;;3.03;;
5125;SDS011;63008;53.112;8.896;2023-04-25T06:50:33;20.67;;;3.53;;
5125;SDS011;63008;53.112;8.896;2023-04-25T06:52:34;16.43;;;2.90;;
5125;SDS011;63008;53.112;8.896;2023-04-25T06:54:35;12.57;;;2.77;;
5125;SDS011;63008;53.112;8.896;2023-04-25T06:56:36;7.80;;;2.90;;
5125;SDS011;63008;53.112;8.896;2023-04-25T06:58:37;6.10;;;1.97;;
5125;SDS011;63008;53.112;8.896;2023-04-25T07:00:38;8.73;;;1.67;;
5125;SDS011;63008;53.112;8.896;2023-04-25T07:02:39;5.83;;;1.50;;
5125;SDS011;63008;53.112;8.896;2023-04-25T07:04:42;15.17;;;2.20;;
5125;SDS011;63008;53.112;8.896;2023-04-25T07:06:44;8.73;;;2.10;;
5125;SDS011;63008;53.112;8.896;2023-04-25T07:08:45;9.13;;;2.27;;
5125;SDS011;63008;53.112;8.896;2023-04-25T07:10:46;8.43;;;2.33;;
5125;SDS011;63008;53.112;8.896;2023-04-25T07:12:47;8.30;;;2.23;;
5125;SDS011;63008;53.112;8.896;2023-04-25T07:14:48;8.83;;;1.63;;
5125;SDS011;63008;53.112;8.896;2023-04-25T07:16:49;9.40;;;2.63;;
5125;SDS011;63008;53.112;8.896;2023-04-25T07:18:50;15.13;;;2.70;;
5125;SDS011;63008;53.112;8.896;2023-04-25T07:20:51;9.53;;;2.30;;
5125;SDS011;63008;53.112;8.896;2023-04-25T07:22:52;8.93;;;2.23;;
5125;SDS011;63008;53.112;8.896;2023-04-25T07:24:53;8.50;;;2.20;;
5125;SDS011;63008;53.112;8.896;2023-04-25T07:26:54;6.90;;;2.20;;
5125;SDS011;63008;53.112;8.896;2023-04-25T07:28:54;10.13;;;2.60;;
5125;SDS011;63008;53.112;8.896;2023-04-25T07:30:55;10.03;;;2.30;;
5125;SDS011;63008;53.112;8.896;2023-04-25T07:33:01;4.80;;;1.90;;
5125;SDS011;63008;53.112;8.896;2023-04-25T07:35:02;9.47;;;1.73;;
5125;SDS011;63008;53.112;8.896;2023-04-25T07:37:04;9.77;;;2.20;;
5125;SDS011;63008;53.112;8.896;2023-04-25T07:39:05;5.20;;;1.47;;
5125;SDS011;63008;53.112;8.896;2023-04-25T07:41:07;10.90;;;1.90;;
5125;SDS011;63008;53.112;8.896;2023-04-25T07:43:09;11.13;;;2.30;;
5125;SDS011;63008;53.112;8.896;2023-04-25T07:45:12;7.70;;;1.80;;
5125;SDS011;63008;53.112;8.896;2023-04-25T07:47:14;7.37;;;1.43;;
5125;SDS011;63008;53.112;8.896;2023-04-25T07:49:15;12.47;;;2.07;;
5125;SDS011;63008;53.112;8.896;2023-04-25T07:51:16;6.73;;;2.07;;
5125;SDS011;63008;53.112;8.896;2023-04-25T07:53:17;7.90;;;1.63;;
5125;SDS011;63008;53.112;8.896;2023-04-25T07:55:18;7.63;;;2.83;;
5125;SDS011;63008;53.112;8.896;2023-04-25T07:57:19;10.87;;;1.70;;
5125;SDS011;63008;53.112;8.896;2023-04-25T07:59:20;11.13;;;2.67;;
5125;SDS011;63008;53.112;8.896;2023-04-25T08:01:22;11.80;;;1.90;;
5125;SDS011;63008;53.112;8.896;2023-04-25T08:03:23;10.10;;;2.40;;
5125;SDS011;63008;53.112;8.896;2023-04-25T08:05:24;6.00;;;1.47;;
5125;SDS011;63008;53.112;8.896;2023-04-25T08:07:25;10.03;;;1.80;;
5125;SDS011;63008;53.112;8.896;2023-04-25T08:09:26;7.30;;;2.03;;
5125;SDS011;63008;53.112;8.896;2023-04-25T08:11:27;9.80;;;2.37;;
5125;SDS011;63008;53.112;8.896;2023-04-25T08:13:28;13.13;;;1.80;;
5125;SDS011;63008;53.112;8.896;2023-04-25T08:15:29;9.90;;;2.00;;
5125;SDS011;63008;53.112;8.896;2023-04-25T08:17:30;15.30;;;1.93;;
5125;SDS011;63008;53.112;8.896;2023-04-25T08:19:31;4.17;;;1.53;;
5125;SDS011;63008;53.112;8.896;2023-04-25T08:21:32;11.53;;;1.53;;
5125;SDS011;63008;53.112;8.896;2023-04-25T08:23:33;3.80;;;1.50;;
5125;SDS011;63008;53.112;8.896;2023-04-25T08:25:34;8.50;;;1.90;;
5125;SDS011;63008;53.112;8.896;2023-04-25T08:27:35;6.53;;;1.87;;
5125;SDS011;63008;53.112;8.896;2023-04-25T08:29:36;6.13;;;1.90;;
5125;SDS011;63008;53.112;8.896;2023-04-25T08:31:37;5.17;;;1.43;;
5125;SDS011;63008;53.112;8.896;2023-04-25T08:33:38;6.27;;;1.73;;
5125;SDS011;63008;53.112;8.896;2023-04-25T08:35:39;6.47;;;1.83;;
5125;SDS011;63008;53.112;8.896;2023-04-25T08:37:40;5.60;;;1.70;;
5125;SDS011;63008;53.112;8.896;2023-04-25T08:39:41;6.87;;;1.50;;
5125;SDS011;63008;53.112;8.896;2023-04-25T08:41:43;20.00;;;2.60;;
5125;SDS011;63008;53.112;8.896;2023-04-25T08:43:44;12.00;;;2.63;;
5125;SDS011;63008;53.112;8.896;2023-04-25T08:45:47;5.60;;;1.80;;
5125;SDS011;63008;53.112;8.896;2023-04-25T08:47:48;12.53;;;2.03;;
5125;SDS011;63008;53.112;8.896;2023-04-25T08:49:52;12.00;;;1.90;;
5125;SDS011;63008;53.112;8.896;2023-04-25T08:51:54;6.03;;;1.63;;
5125;SDS011;63008;53.112;8.896;2023-04-25T08:54:05;5.43;;;2.07;;
5125;SDS011;63008;53.112;8.896;2023-04-25T08:56:10;12.93;;;3.13;;
5125;SDS011;63008;53.112;8.896;2023-04-25T08:58:13;11.47;;;2.37;;
5125;SDS011;63008;53.112;8.896;2023-04-25T09:00:15;9.20;;;1.97;;
5125;SDS011;63008;53.112;8.896;2023-04-25T09:02:17;9.20;;;1.90;;
5125;SDS011;63008;53.112;8.896;2023-04-25T09:04:20;5.30;;;1.57;;
5125;SDS011;63008;53.112;8.896;2023-04-25T09:06:21;6.97;;;1.73;;
5125;SDS011;63008;53.112;8.896;2023-04-25T09:08:23;8.07;;;1.87;;
5125;SDS011;63008;53.112;8.896;2023-04-25T09:10:25;8.00;;;1.40;;
5125;SDS011;63008;53.112;8.896;2023-04-25T09:12:25;6.50;;;1.93;;
5125;SDS011;63008;53.112;8.896;2023-04-25T09:14:28;8.53;;;2.30;;
5125;SDS011;63008;53.112;8.896;2023-04-25T09:16:29;7.40;;;1.50;;
5125;SDS011;63008;53.112;8.896;2023-04-25T09:18:31;6.37;;;1.30;;
5125;SDS011;63008;53.112;8.896;2023-04-25T09:20:34;4.20;;;0.90;;
5125;SDS011;63008;53.112;8.896;2023-04-25T09:22:41;8.43;;;1.73;;
5125;SDS011;63008;53.112;8.896;2023-04-25T09:24:46;5.60;;;1.27;;
5125;SDS011;63008;53.112;8.896;2023-04-25T09:26:49;8.57;;;1.77;;
5125;SDS011;63008;53.112;8.896;2023-04-25T09:28:50;6.23;;;1.53;;
5125;SDS011;63008;53.112;8.896;2023-04-25T09:31:05;7.33;;;1.23;;
5125;SDS011;63008;53.112;8.896;2023-04-25T09:33:07;9.20;;;1.93;;
5125;SDS011;63008;53.112;8.896;2023-04-25T09:35:08;3.73;;;1.60;;
5125;SDS011;63008;53.112;8.896;2023-04-25T09:37:13;10.97;;;1.97;;
5125;SDS011;63008;53.112;8.896;2023-04-25T09:39:18;4.20;;;1.70;;
5125;SDS011;63008;53.112;8.896;2023-04-25T09:41:24;6.43;;;1.37;;
5125;SDS011;63008;53.112;8.896;2023-04-25T09:43:25;4.73;;;1.40;;
5125;SDS011;63008;53.112;8.896;2023-04-25T09:45:29;9.30;;;1.93;;
5125;SDS011;63008;53.112;8.896;2023-04-25T09:47:30;3.63;;;1.50;;
5125;SDS011;63008;53.112;8.896;2023-04-25T09:49:31;8.60;;;1.10;;
5125;SDS011;63008;53.112;8.896;2023-04-25T09:51:32;6.73;;;1.20;;
5125;SDS011;63008;53.112;8.896;2023-04-25T09:53:34;5.90;;;1.57;;
5125;SDS011;63008;53.112;8.896;2023-04-25T09:55:37;6.07;;;1.67;;
5125;SDS011;63008;53.112;8.896;2023-04-25T09:57:38;3.37;;;1.13;;
5125;SDS011;63008;53.112;8.896;2023-04-25T09:59:44;7.07;;;1.13;;
5125;SDS011;63008;53.112;8.896;2023-04-25T10:01:49;9.90;;;1.87;;
5125;SDS011;63008;53.112;8.896;2023-04-25T10:03:53;3.17;;;1.00;;
5125;SDS011;63008;53.112;8.896;2023-04-25T10:06:00;5.20;;;1.33;;
5125;SDS011;63008;53.112;8.896;2023-04-25T10:08:03;6.27;;;1.23;;
5125;SDS011;63008;53.112;8.896;2023-04-25T10:10:07;8.73;;;1.43;;
5125;SDS011;63008;53.112;8.896;2023-04-25T10:12:09;7.80;;;1.77;;
5125;SDS011;63008;53.112;8.896;2023-04-25T10:14:10;3.73;;;1.00;;
5125;SDS011;63008;53.112;8.896;2023-04-25T10:16:12;2.50;;;1.30;;
5125;SDS011;63008;53.112;8.896;2023-04-25T10:18:14;2.63;;;1.37;;
5125;SDS011;63008;53.112;8.896;2023-04-25T10:20:15;5.67;;;1.47;;
5125;SDS011;63008;53.112;8.896;2023-04-25T10:22:17;7.63;;;1.10;;
5125;SDS011;63008;53.112;8.896;2023-04-25T10:24:23;4.83;;;1.07;;
5125;SDS011;63008;53.112;8.896;2023-04-25T10:26:26;2.50;;;1.20;;
5125;SDS011;63008;53.112;8.896;2023-04-25T10:28:27;3.87;;;1.20;;
5125;SDS011;63008;53.112;8.896;2023-04-25T10:30:29;2.83;;;0.87;;
5125;SDS011;63008;53.112;8.896;2023-04-25T10:32:30;6.60;;;1.00;;
5125;SDS011;63008;53.112;8.896;2023-04-25T10:34:40;3.40;;;1.00;;
5125;SDS011;63008;53.112;8.896;2023-04-25T10:36:41;3.07;;;1.50;;
5125;SDS011;63008;53.112;8.896;2023-04-25T10:38:43;2.90;;;1.57;;
5125;SDS011;63008;53.112;8.896;2023-04-25T10:41:04;8.50;;;1.20;;
5125;SDS011;63008;53.112;8.896;2023-04-25T10:45:34;4.27;;;1.20;;
5125;SDS011;63008;53.112;8.896;2023-04-25T10:47:51;5.43;;;2.00;;
5125;SDS011;63008;53.112;8.896;2023-04-25T10:49:52;9.50;;;1.97;;
5125;SDS011;63008;53.112;8.896;2023-04-25T10:51:59;6.77;;;1.60;;
5125;SDS011;63008;53.112;8.896;2023-04-25T10:54:12;9.87;;;2.43;;
5125;SDS011;63008;53.112;8.896;2023-04-25T10:56:19;5.43;;;2.03;;
5125;SDS011;63008;53.112;8.896;2023-04-25T10:58:22;8.83;;;1.83;;
5125;SDS011;63008;53.112;8.896;2023-04-25T11:00:23;6.70;;;2.13;;
5125;SDS011;63008;53.112;8.896;2023-04-25T11:02:27;4.60;;;1.23;;
5125;SDS011;63008;53.112;8.896;2023-04-25T11:04:30;6.73;;;1.23;;
5125;SDS011;63008;53.112;8.896;2023-04-25T11:09:08;8.37;;;1.93;;
5125;SDS011;63008;53.112;8.896;2023-04-25T11:11:14;6.40;;;1.60;;
5125;SDS011;63008;53.112;8.896;2023-04-25T11:13:15;3.90;;;1.57;;
5125;SDS011;63008;53.112;8.896;2023-04-25T11:15:17;6.97;;;1.80;;
5125;SDS011;63008;53.112;8.896;2023-04-25T11:17:18;3.10;;;1.50;;
5125;SDS011;63008;53.112;8.896;2023-04-25T11:19:19;3.90;;;1.40;;
5125;SDS011;63008;53.112;8.896;2023-04-25T11:21:21;8.80;;;1.40;;
5125;SDS011;63008;53.112;8.896;2023-04-25T11:23:22;5.10;;;1.67;;
5125;SDS011;63008;53.112;8.896;2023-04-25T11:25:23;6.60;;;1.50;;
5125;SDS011;63008;53.112;8.896;2023-04-25T11:27:26;4.77;;;1.40;;
5125;SDS011;63008;53.112;8.896;2023-04-25T11:29:27;7.53;;;2.40;;
5125;SDS011;63008;53.112;8.896;2023-04-25T11:31:32;8.07;;;1.60;;
5125;SDS011;63008;53.112;8.896;2023-04-25T11:33:33;17.57;;;1.60;;
5125;SDS011;63008;53.112;8.896;2023-04-25T11:35:33;5.63;;;1.50;;
5125;SDS011;63008;53.112;8.896;2023-04-25T11:37:35;3.73;;;1.00;;
5125;SDS011;63008;53.112;8.896;2023-04-25T11:39:36;6.60;;;1.70;;
5125;SDS011;63008;53.112;8.896;2023-04-25T11:41:38;6.90;;;1.70;;
5125;SDS011;63008;53.112;8.896;2023-04-25T11:43:39;8.80;;;1.37;;
5125;SDS011;63008;53.112;8.896;2023-04-25T11:45:40;2.73;;;1.13;;
5125;SDS011;63008;53.112;8.896;2023-04-25T11:47:41;5.53;;;1.60;;
5125;SDS011;63008;53.112;8.896;2023-04-25T11:49:42;11.20;;;2.10;;
5125;SDS011;63008;53.112;8.896;2023-04-25T11:51:44;3.57;;;1.00;;
5125;SDS011;63008;53.112;8.896;2023-04-25T11:53:47;4.30;;;0.90;;
5125;SDS011;63008;53.112;8.896;2023-04-25T11:55:47;3.00;;;1.00;;
5125;SDS011;63008;53.112;8.896;2023-04-25T11:57:49;11.27;;;1.63;;
5125;SDS011;63008;53.112;8.896;2023-04-25T11:59:53;10.73;;;1.87;;
5125;SDS011;63008;53.112;8.896;2023-04-25T12:01:54;7.93;;;1.40;;
5125;SDS011;63008;53.112;8.896;2023-04-25T12:03:55;6.20;;;1.20;;
5125;SDS011;63008;53.112;8.896;2023-04-25T12:06:01;5.33;;;1.40;;
5125;SDS011;63008;53.112;8.896;2023-04-25T12:08:10;3.43;;;0.97;;
5125;SDS011;63008;53.112;8.896;2023-04-25T12:10:15;6.57;;;1.40;;
5125;SDS011;63008;53.112;8.896;2023-04-25T12:12:17;2.50;;;1.10;;
5125;SDS011;63008;53.112;8.896;2023-04-25T12:14:22;3.83;;;0.60;;
5125;SDS011;63008;53.112;8.896;2023-04-25T12:16:25;4.33;;;0.80;;
5125;SDS011;63008;53.112;8.896;2023-04-25T12:18:26;3.90;;;1.00;;
5125;SDS011;63008;53.112;8.896;2023-04-25T12:20:28;2.73;;;0.93;;
5125;SDS011;63008;53.112;8.896;2023-04-25T12:22:29;3.17;;;0.87;;
5125;SDS011;63008;53.112;8.896;2023-04-25T12:24:33;4.67;;;1.20;;